Time;durP1;ratioP1;P1;durP2;ratioP2;P2;SDS_P1;SDS_P2;PMS_P1;PMS_P2;Temp;Humidity;BMP_temperature;BMP_pressure;BME280_temperature;BME280_humidity;BME280_pressure;Samples;Min_cycle;Max_cycle;Signal;HPM_P1;HPM_P2
2021/03/05 00:01:33;;;;;;;20.63;4.83;;;;;;;;;;5053099;28;20116;-81
2021/03/05 00:03:59;;;;;;;26.73;5.10;;;;;;;;;;5086847;28;20461;-81
2021/03/05 00:06:24;;;;;;;13.80;4.10;;;;;;;;;;5054001;28;20032;-82
2021/03/05 00:08:49;;;;;;;20.70;4.40;;;;;;;;;;5053109;28;20048;-81
2021/03/05 00:11:15;;;;;;;16.73;4.53;;;;;;;;;;5054444;28;20377;-82
2021/03/05 00:13:40;;;;;;;27.60;5.03;;;;;;;;;;5086978;28;20021;-81
2021/03/05 00:16:06;;;;;;;20.30;4.03;;;;;;;;;;5086656;28;20038;-81
2021/03/05 00:18:31;;;;;;;13.50;4.10;;;;;;;;;;5086604;28;20087;-81
2021/03/05 00:20:56;;;;;;;17.00;4.13;;;;;;;;;;5086335;28;20044;-81
2021/03/05 00:23:22;;;;;;;19.27;4.57;;;;;;;;;;5086717;28;20029;-81
2021/03/05 00:25:49;;;;;;;29.57;4.93;;;;;;;;;;5086183;28;20028;-81
2021/03/05 00:28:14;;;;;;;25.83;4.57;;;;;;;;;;5086520;28;20175;-81
2021/03/05 00:30:39;;;;;;;15.77;4.33;;;;;;;;;;5053753;28;20124;-81
2021/03/05 00:33:05;;;;;;;18.63;5.17;;;;;;;;;;5054004;28;20360;-81
2021/03/05 00:35:30;;;;;;;14.27;4.03;;;;;;;;;;5054011;28;20021;-81
2021/03/05 00:37:56;;;;;;;17.20;4.30;;;;;;;;;;5086134;28;20021;-81
2021/03/05 00:40:22;;;;;;;21.50;4.53;;;;;;;;;;5086229;28;20021;-81
2021/03/05 00:42:48;;;;;;;14.03;4.50;;;;;;;;;;5053858;28;20017;-81
2021/03/05 00:45:14;;;;;;;21.83;4.33;;;;;;;;;;5086057;28;20039;-81
2021/03/05 00:47:39;;;;;;;22.60;4.60;;;;;;;;;;5085953;28;20060;-81
2021/03/05 00:50:05;;;;;;;18.30;5.17;;;;;;;;;;5085997;28;20067;-81
2021/03/05 00:52:30;;;;;;;18.03;4.63;;;;;;;;;;5053763;28;20017;-81
2021/03/05 00:54:55;;;;;;;15.90;5.17;;;;;;;;;;5053764;28;20013;-81
2021/03/05 00:57:20;;;;;;;22.20;4.60;;;;;;;;;;5053679;28;20091;-82
2021/03/05 00:59:46;;;;;;;20.73;4.53;;;;;;;;;;5075037;28;20350;-82
2021/03/05 01:02:11;;;;;;;22.63;4.93;;;;;;;;;;5048784;28;20017;-82
2021/03/05 01:04:36;;;;;;;17.40;4.97;;;;;;;;;;5085337;28;20017;-81
2021/03/05 01:07:01;;;;;;;19.70;4.67;;;;;;;;;;5085148;28;20411;-81
2021/03/05 01:09:26;;;;;;;30.53;6.60;;;;;;;;;;5085501;28;20158;-82
2021/03/05 01:11:52;;;;;;;25.63;7.37;;;;;;;;;;5085171;28;20480;-82
2021/03/05 01:14:17;;;;;;;26.03;8.07;;;;;;;;;;5085418;28;20429;-82
2021/03/05 01:16:42;;;;;;;18.10;7.07;;;;;;;;;;5085208;28;20017;-82
2021/03/05 01:19:08;;;;;;;19.33;6.07;;;;;;;;;;5084943;28;20021;-82
2021/03/05 01:21:34;;;;;;;24.47;5.20;;;;;;;;;;5085206;28;20013;-82
2021/03/05 01:23:59;;;;;;;18.23;5.27;;;;;;;;;;5084921;28;20166;-81
2021/03/05 01:26:24;;;;;;;21.33;4.97;;;;;;;;;;5085276;28;20032;-81
2021/03/05 01:28:50;;;;;;;11.83;4.20;;;;;;;;;;5077794;28;20162;-82
2021/03/05 01:31:15;;;;;;;22.13;4.93;;;;;;;;;;5051744;28;20096;-82
2021/03/05 01:33:41;;;;;;;20.77;4.23;;;;;;;;;;5085315;28;20017;-82
2021/03/05 01:36:06;;;;;;;16.83;4.67;;;;;;;;;;5052418;28;20017;-82
2021/03/05 01:38:31;;;;;;;18.57;4.60;;;;;;;;;;5052753;28;20036;-82
2021/03/05 01:40:56;;;;;;;15.33;4.50;;;;;;;;;;5085316;28;20413;-82
2021/03/05 01:43:22;;;;;;;17.90;4.77;;;;;;;;;;5085042;28;20095;-81
2021/03/05 01:45:47;;;;;;;22.63;4.17;;;;;;;;;;5052787;28;20472;-82
2021/03/05 01:48:16;;;;;;;19.97;4.23;;;;;;;;;;5052869;28;20028;-82
2021/03/05 01:50:57;;;;;;;12.87;3.93;;;;;;;;;;5052828;28;20009;-82
2021/03/05 01:53:22;;;;;;;18.33;4.00;;;;;;;;;;5051412;28;20016;-82
2021/03/05 01:55:47;;;;;;;18.03;3.83;;;;;;;;;;5085226;28;20098;-82
2021/03/05 01:58:13;;;;;;;15.10;3.83;;;;;;;;;;5085070;28;20029;-81
2021/03/05 02:00:41;;;;;;;15.10;4.00;;;;;;;;;;5051803;28;20033;-82
2021/03/05 02:03:07;;;;;;;14.93;4.03;;;;;;;;;;5051114;28;20025;-82
2021/03/05 02:05:32;;;;;;;16.93;4.10;;;;;;;;;;5051332;28;20580;-82
2021/03/05 02:07:57;;;;;;;13.07;4.00;;;;;;;;;;5051226;28;20384;-81
2021/03/05 02:10:22;;;;;;;18.00;3.70;;;;;;;;;;5052843;28;20033;-83
2021/03/05 02:12:48;;;;;;;14.70;3.70;;;;;;;;;;5052379;28;20473;-81
2021/03/05 02:15:13;;;;;;;21.07;3.77;;;;;;;;;;5052564;28;20013;-82
2021/03/05 02:17:43;;;;;;;19.97;3.83;;;;;;;;;;5050927;28;20033;-81
2021/03/05 02:20:16;;;;;;;13.33;3.90;;;;;;;;;;5051013;28;20024;-82
2021/03/05 02:22:41;;;;;;;19.23;4.40;;;;;;;;;;5051320;28;20408;-82
2021/03/05 02:25:06;;;;;;;12.70;3.53;;;;;;;;;;5052704;28;20025;-82
2021/03/05 02:27:50;;;;;;;20.67;4.47;;;;;;;;;;5052494;28;20055;-82
2021/03/05 02:30:34;;;;;;;21.60;3.67;;;;;;;;;;5049282;28;20108;-82
2021/03/05 02:33:13;;;;;;;16.20;3.17;;;;;;;;;;5052271;28;20022;-82
2021/03/05 02:35:40;;;;;;;14.13;3.13;;;;;;;;;;5051030;28;20439;-82
2021/03/05 02:38:06;;;;;;;21.73;3.87;;;;;;;;;;5050978;28;20025;-82
2021/03/05 02:40:36;;;;;;;18.50;3.40;;;;;;;;;;5052374;28;20028;-81
2021/03/05 02:43:06;;;;;;;27.50;3.67;;;;;;;;;;5050950;28;20063;-82
2021/03/05 02:45:34;;;;;;;12.73;3.23;;;;;;;;;;5050802;28;20031;-82
2021/03/05 02:48:19;;;;;;;21.87;4.10;;;;;;;;;;5053008;28;20029;-82
2021/03/05 02:50:45;;;;;;;12.53;2.87;;;;;;;;;;5043652;28;20083;-82
2021/03/05 02:53:15;;;;;;;17.53;3.63;;;;;;;;;;5054423;28;20025;-82
2021/03/05 02:55:40;;;;;;;21.17;3.17;;;;;;;;;;5054887;28;20361;-82
2021/03/05 02:58:06;;;;;;;17.50;3.23;;;;;;;;;;5054779;28;20035;-82
2021/03/05 03:00:32;;;;;;;15.83;3.17;;;;;;;;;;5054581;28;20093;-82
2021/03/05 03:02:57;;;;;;;18.93;4.13;;;;;;;;;;5054783;28;20097;-82
2021/03/05 03:05:24;;;;;;;17.10;4.50;;;;;;;;;;5054435;28;20020;-82
2021/03/05 03:07:50;;;;;;;14.23;3.07;;;;;;;;;;5054445;28;20021;-82
2021/03/05 03:10:15;;;;;;;17.17;3.30;;;;;;;;;;5054254;28;20155;-82
2021/03/05 03:12:41;;;;;;;17.63;3.17;;;;;;;;;;5055887;28;20025;-82
2021/03/05 03:15:08;;;;;;;17.40;3.77;;;;;;;;;;5053999;28;20032;-82
2021/03/05 03:17:33;;;;;;;16.67;3.70;;;;;;;;;;5053845;28;20479;-82
2021/03/05 03:20:00;;;;;;;16.60;4.20;;;;;;;;;;5053454;28;20025;-82
2021/03/05 03:22:25;;;;;;;18.30;3.53;;;;;;;;;;5053478;28;20039;-82
2021/03/05 03:24:50;;;;;;;16.30;3.83;;;;;;;;;;5053732;28;20360;-82
2021/03/05 03:27:15;;;;;;;15.03;3.40;;;;;;;;;;5053447;28;20036;-82
2021/03/05 03:29:41;;;;;;;21.70;4.50;;;;;;;;;;5053909;28;20013;-82
2021/03/05 03:32:09;;;;;;;11.83;4.00;;;;;;;;;;5053799;28;20052;-82
2021/03/05 03:34:34;;;;;;;11.47;3.77;;;;;;;;;;5053514;28;20036;-83
2021/03/05 03:36:59;;;;;;;16.33;4.13;;;;;;;;;;5053627;28;20388;-82
2021/03/05 03:39:24;;;;;;;12.17;4.23;;;;;;;;;;5054743;28;20460;-82
2021/03/05 03:41:49;;;;;;;15.30;4.87;;;;;;;;;;5053634;28;20028;-82
2021/03/05 03:44:15;;;;;;;24.00;5.27;;;;;;;;;;5053013;28;20050;-82
2021/03/05 03:46:47;;;;;;;15.97;4.83;;;;;;;;;;5054949;28;20021;-81
2021/03/05 03:49:12;;;;;;;;;;;;;;;;;;5054161;28;20033;-82
2021/03/05 03:51:43;;;;;;;18.08;6.05;;;;;;;;;;5053632;28;20010;-81
2021/03/05 03:54:13;;;;;;;19.40;6.13;;;;;;;;;;5053257;28;20017;-82
2021/03/05 03:56:38;;;;;;;12.17;5.90;;;;;;;;;;5053443;28;20100;-82
2021/03/05 03:59:05;;;;;;;21.17;6.50;;;;;;;;;;5052908;28;20108;-82
2021/03/05 04:01:31;;;;;;;16.43;6.20;;;;;;;;;;5054638;28;20017;-82
2021/03/05 04:03:58;;;;;;;18.77;6.37;;;;;;;;;;5053451;28;20108;-82
2021/03/05 04:06:24;;;;;;;15.97;6.47;;;;;;;;;;5053264;28;20407;-81
2021/03/05 04:08:49;;;;;;;15.37;6.30;;;;;;;;;;5054529;28;20017;-82
2021/03/05 04:11:15;;;;;;;16.03;6.87;;;;;;;;;;5053136;28;20079;-82
2021/03/05 04:13:41;;;;;;;15.03;6.50;;;;;;;;;;5053199;28;20025;-82
2021/03/05 04:16:06;;;;;;;19.17;8.30;;;;;;;;;;5053264;28;20049;-82
2021/03/05 04:18:32;;;;;;;15.67;6.90;;;;;;;;;;5054449;28;20488;-82
2021/03/05 04:20:59;;;;;;;13.30;7.50;;;;;;;;;;5052891;28;20102;-82
2021/03/05 04:23:25;;;;;;;16.80;6.97;;;;;;;;;;5054484;28;20029;-82
2021/03/05 04:25:50;;;;;;;18.37;6.73;;;;;;;;;;5054479;28;20024;-82
2021/03/05 04:28:15;;;;;;;12.80;6.60;;;;;;;;;;5053196;28;20041;-82
2021/03/05 04:30:40;;;;;;;18.30;6.83;;;;;;;;;;5053083;28;20522;-82
2021/03/05 04:33:05;;;;;;;16.00;7.17;;;;;;;;;;5053147;28;20017;-82
2021/03/05 04:35:31;;;;;;;12.20;6.70;;;;;;;;;;5053043;28;20021;-82
2021/03/05 04:37:56;;;;;;;12.60;6.63;;;;;;;;;;5052884;28;20028;-82
2021/03/05 04:40:21;;;;;;;15.90;8.40;;;;;;;;;;5054314;28;20029;-82
2021/03/05 04:42:46;;;;;;;11.83;6.83;;;;;;;;;;5054047;28;20033;-82
2021/03/05 04:45:12;;;;;;;15.23;6.43;;;;;;;;;;5054235;28;20028;-82
2021/03/05 04:47:37;;;;;;;14.17;7.10;;;;;;;;;;5052716;28;20515;-82
2021/03/05 04:50:03;;;;;;;13.23;6.80;;;;;;;;;;5052695;28;20044;-82
2021/03/05 04:52:28;;;;;;;12.07;6.43;;;;;;;;;;5053982;28;20464;-82
2021/03/05 04:54:54;;;;;;;15.40;8.20;;;;;;;;;;5053861;28;20027;-82
2021/03/05 04:57:19;;;;;;;13.23;7.10;;;;;;;;;;5052622;28;20051;-82
2021/03/05 04:59:44;;;;;;;15.40;7.60;;;;;;;;;;5052449;28;20464;-82
2021/03/05 05:02:09;;;;;;;12.40;6.90;;;;;;;;;;5052326;28;20074;-82
2021/03/05 05:04:34;;;;;;;13.73;6.77;;;;;;;;;;5052473;28;20029;-83
2021/03/05 05:07:00;;;;;;;15.97;7.90;;;;;;;;;;5053664;28;20047;-82
2021/03/05 05:09:25;;;;;;;17.00;7.80;;;;;;;;;;5052257;28;20111;-82
2021/03/05 05:11:50;;;;;;;18.93;8.23;;;;;;;;;;5051451;28;20028;-82
2021/03/05 05:14:15;;;;;;;17.00;8.50;;;;;;;;;;5052093;28;20024;-82
2021/03/05 05:16:41;;;;;;;16.70;7.83;;;;;;;;;;5053549;28;20524;-82
2021/03/05 05:19:06;;;;;;;15.70;7.70;;;;;;;;;;5052037;28;20023;-82
2021/03/05 05:21:32;;;;;;;13.87;7.67;;;;;;;;;;5053451;28;20017;-82
2021/03/05 05:23:57;;;;;;;16.20;7.90;;;;;;;;;;5053272;28;20101;-82
2021/03/05 05:26:23;;;;;;;13.23;7.27;;;;;;;;;;5051666;28;20456;-83
2021/03/05 05:28:48;;;;;;;13.87;6.40;;;;;;;;;;5052614;28;20075;-83
2021/03/05 05:31:13;;;;;;;15.90;7.73;;;;;;;;;;5051461;28;20017;-83
2021/03/05 05:33:38;;;;;;;17.07;7.50;;;;;;;;;;5051347;28;20056;-83
2021/03/05 05:36:03;;;;;;;13.17;7.50;;;;;;;;;;5051331;28;20116;-82
2021/03/05 05:38:29;;;;;;;12.53;6.80;;;;;;;;;;5051567;28;20383;-82
2021/03/05 05:40:54;;;;;;;12.97;7.47;;;;;;;;;;5051135;28;20020;-82
2021/03/05 05:43:19;;;;;;;17.20;7.97;;;;;;;;;;5052755;28;20086;-82
2021/03/05 05:45:45;;;;;;;15.40;7.37;;;;;;;;;;5051252;28;20025;-82
2021/03/05 05:48:11;;;;;;;13.50;7.30;;;;;;;;;;5050809;28;20047;-82
2021/03/05 05:50:37;;;;;;;16.20;7.67;;;;;;;;;;5050794;28;20024;-82
2021/03/05 05:53:04;;;;;;;14.37;8.33;;;;;;;;;;5051039;28;20025;-82
2021/03/05 05:55:30;;;;;;;14.93;8.47;;;;;;;;;;5052885;28;20091;-82
2021/03/05 05:57:55;;;;;;;16.73;8.57;;;;;;;;;;5051210;28;20487;-82
2021/03/05 06:00:21;;;;;;;15.77;8.00;;;;;;;;;;5052370;28;20032;-82
2021/03/05 06:02:46;;;;;;;16.17;8.30;;;;;;;;;;5051250;28;20488;-82
2021/03/05 06:05:12;;;;;;;16.83;8.63;;;;;;;;;;5051278;28;20067;-82
2021/03/05 06:07:38;;;;;;;19.83;8.00;;;;;;;;;;5051301;28;20032;-82
2021/03/05 06:10:03;;;;;;;14.63;8.27;;;;;;;;;;5052595;28;20024;-82
2021/03/05 06:12:29;;;;;;;15.60;7.80;;;;;;;;;;5052375;28;20505;-82
2021/03/05 06:14:54;;;;;;;17.90;9.10;;;;;;;;;;5051000;28;20491;-82
2021/03/05 06:17:19;;;;;;;17.93;7.90;;;;;;;;;;5052425;28;20047;-82
2021/03/05 06:19:44;;;;;;;19.20;9.43;;;;;;;;;;5051312;28;20017;-82
2021/03/05 06:22:23;;;;;;;19.50;8.50;;;;;;;;;;5052421;28;20025;-82
2021/03/05 06:24:48;;;;;;;19.87;9.40;;;;;;;;;;5055407;28;20021;-82
2021/03/05 06:27:15;;;;;;;24.97;9.10;;;;;;;;;;5055249;28;20029;-82
2021/03/05 06:29:44;;;;;;;22.47;9.80;;;;;;;;;;5074828;28;20021;-82
2021/03/05 06:32:11;;;;;;;23.33;8.73;;;;;;;;;;5056285;28;20032;-81
2021/03/05 06:34:46;;;;;;;21.90;9.43;;;;;;;;;;5055197;28;20048;-82
2021/03/05 06:37:12;;;;;;;16.63;7.60;;;;;;;;;;5055074;28;20043;-82
2021/03/05 06:39:38;;;;;;;18.03;8.23;;;;;;;;;;5055014;28;20345;-82
2021/03/05 06:42:03;;;;;;;18.53;9.27;;;;;;;;;;5055027;28;20025;-83
2021/03/05 06:44:28;;;;;;;18.90;8.87;;;;;;;;;;5056151;28;20040;-82
2021/03/05 06:46:54;;;;;;;21.50;8.70;;;;;;;;;;5054729;28;20039;-82
2021/03/05 06:49:21;;;;;;;15.70;8.63;;;;;;;;;;5055079;28;20115;-82
2021/03/05 06:51:53;;;;;;;17.07;8.07;;;;;;;;;;5056098;28;20524;-83
2021/03/05 06:54:18;;;;;;;;;;;;;;;;;;5056606;28;20079;-82
2021/03/05 06:56:48;;;;;;;20.85;8.63;;;;;;;;;;5054749;28;19909;-83
2021/03/05 06:59:14;;;;;;;21.80;8.53;;;;;;;;;;5054835;28;20527;-82
2021/03/05 07:01:47;;;;;;;17.63;8.30;;;;;;;;;;5054654;28;20020;-82
2021/03/05 07:04:16;;;;;;;19.07;9.10;;;;;;;;;;5055751;28;20024;-82
2021/03/05 07:06:42;;;;;;;17.67;8.17;;;;;;;;;;5054330;28;20021;-82
2021/03/05 07:09:08;;;;;;;22.97;8.40;;;;;;;;;;5054437;28;20364;-82
2021/03/05 07:11:38;;;;;;;20.23;8.07;;;;;;;;;;5055730;28;20041;-81
2021/03/05 07:14:04;;;;;;;13.00;6.30;;;;;;;;;;5055023;28;20017;-82
2021/03/05 07:16:37;;;;;;;13.23;6.23;;;;;;;;;;5053664;28;20019;-82
2021/03/05 07:19:02;;;;;;;;;;;;;;;;;;5054299;28;20492;-81
2021/03/05 07:21:27;;;;;;;15.95;7.40;;;;;;;;;;5053879;28;19904;-81
2021/03/05 07:23:53;;;;;;;21.50;7.80;;;;;;;;;;5055246;28;20025;-82
2021/03/05 07:26:19;;;;;;;17.73;6.97;;;;;;;;;;5053874;28;20036;-82
2021/03/05 07:28:45;;;;;;;19.17;7.77;;;;;;;;;;5054993;28;20162;-82
2021/03/05 07:31:14;;;;;;;12.67;6.53;;;;;;;;;;5053988;28;20020;-83
2021/03/05 07:33:41;;;;;;;14.03;6.20;;;;;;;;;;5052456;28;20020;-82
2021/03/05 07:36:08;;;;;;;13.00;7.03;;;;;;;;;;5054058;28;20155;-82
2021/03/05 07:38:37;;;;;;;11.70;5.30;;;;;;;;;;5052546;28;20020;-82
2021/03/05 07:41:02;;;;;;;9.80;4.37;;;;;;;;;;5051976;28;20029;-82
2021/03/05 07:43:28;;;;;;;11.50;5.27;;;;;;;;;;5052581;28;20039;-82
2021/03/05 07:45:54;;;;;;;10.73;5.10;;;;;;;;;;5053317;28;20021;-82
2021/03/05 07:48:19;;;;;;;15.33;6.03;;;;;;;;;;5054500;28;20024;-82
2021/03/05 07:50:44;;;;;;;11.87;6.03;;;;;;;;;;5053138;28;20028;-82
2021/03/05 07:53:10;;;;;;;10.73;5.83;;;;;;;;;;5054668;28;20032;-82
2021/03/05 07:55:39;;;;;;;11.53;5.27;;;;;;;;;;5053733;28;20105;-82
2021/03/05 07:58:04;;;;;;;12.30;5.47;;;;;;;;;;5052957;28;20021;-82
2021/03/05 08:00:46;;;;;;;16.73;5.13;;;;;;;;;;5053719;28;20116;-82
2021/03/05 08:03:12;;;;;;;8.50;3.88;;;;;;;;;;5053273;28;20049;-82
2021/03/05 08:05:38;;;;;;;19.10;5.60;;;;;;;;;;5053240;28;20052;-82
2021/03/05 08:08:14;;;;;;;10.00;3.67;;;;;;;;;;5053216;28;20506;-82
2021/03/05 08:10:44;;;;;;;14.17;4.30;;;;;;;;;;5053234;28;20048;-82
2021/03/05 08:13:28;;;;;;;24.43;8.13;;;;;;;;;;5054857;28;20043;-82
2021/03/05 08:15:53;;;;;;;22.03;5.77;;;;;;;;;;5052935;28;20515;-83
2021/03/05 08:18:19;;;;;;;8.27;3.23;;;;;;;;;;5053409;28;20059;-82
2021/03/05 08:20:48;;;;;;;13.03;3.23;;;;;;;;;;5052842;28;20025;-83
2021/03/05 08:23:15;;;;;;;16.33;4.33;;;;;;;;;;5052950;28;20476;-82
2021/03/05 08:25:47;;;;;;;8.03;3.67;;;;;;;;;;5052711;28;20104;-82
2021/03/05 08:28:12;;;;;;;;;;;;;;;;;;5053225;28;20061;-82
2021/03/05 08:30:42;;;;;;;9.47;3.03;;;;;;;;;;5053054;28;19904;-82
2021/03/05 08:33:08;;;;;;;9.40;3.07;;;;;;;;;;5041783;28;20342;-82
2021/03/05 08:35:40;;;;;;;4.67;2.50;;;;;;;;;;5052760;28;20108;-82
2021/03/05 08:38:10;;;;;;;4.73;1.90;;;;;;;;;;5052395;28;20017;-82
2021/03/05 08:40:35;;;;;;;8.27;2.50;;;;;;;;;;5053018;28;20021;-83
2021/03/05 08:43:09;;;;;;;6.77;2.90;;;;;;;;;;5046380;28;20420;-82
2021/03/05 08:45:39;;;;;;;6.57;2.83;;;;;;;;;;5047500;28;20071;-82
2021/03/05 08:48:04;;;;;;;5.63;2.97;;;;;;;;;;5049561;28;20043;-82
2021/03/05 08:50:31;;;;;;;5.05;2.45;;;;;;;;;;5052177;28;20559;-83
2021/03/05 08:53:01;;;;;;;5.88;2.05;;;;;;;;;;5048156;28;20385;-82
2021/03/05 08:55:30;;;;;;;7.55;1.83;;;;;;;;;;5053802;28;20453;-82
2021/03/05 08:57:56;;;;;;;6.45;2.20;;;;;;;;;;5053578;28;20138;-82
2021/03/05 09:00:22;;;;;;;6.00;2.20;;;;;;;;;;5051851;28;20483;-82
2021/03/05 09:02:48;;;;;;;5.45;1.98;;;;;;;;;;5053390;28;20029;-82
2021/03/05 09:05:25;;;;;;;5.10;2.53;;;;;;;;;;5053607;28;20078;-82
2021/03/05 09:07:54;;;;;;;4.40;2.20;;;;;;;;;;5052140;28;20028;-83
2021/03/05 09:10:20;;;;;;;4.90;2.47;;;;;;;;;;5052040;28;20021;-82
2021/03/05 09:12:59;;;;;;;6.90;1.98;;;;;;;;;;5053295;28;20025;-83
2021/03/05 09:15:28;;;;;;;11.38;2.13;;;;;;;;;;5053300;28;20017;-83
2021/03/05 09:17:54;;;;;;;9.20;2.63;;;;;;;;;;5052267;28;20435;-82
2021/03/05 09:20:19;;;;;;;7.60;3.15;;;;;;;;;;5052220;28;20025;-82
2021/03/05 09:22:45;;;;;;;9.13;3.72;;;;;;;;;;5052005;28;20036;-82
2021/03/05 09:25:10;;;;;;;4.90;2.23;;;;;;;;;;5052036;28;20025;-82
2021/03/05 09:27:40;;;;;;;6.20;2.72;;;;;;;;;;5051210;28;20435;-80
2021/03/05 09:30:15;;;;;;;6.07;2.10;;;;;;;;;;5041081;28;20044;-82
2021/03/05 09:32:47;;;;;;;4.80;2.00;;;;;;;;;;5051962;28;20044;-81
2021/03/05 09:35:12;;;;;;;4.00;1.90;;;;;;;;;;5052759;28;20016;-81
2021/03/05 09:37:37;;;;;;;6.57;2.28;;;;;;;;;;5052216;28;20035;-82
2021/03/05 09:40:03;;;;;;;6.17;1.50;;;;;;;;;;5050450;28;20132;-82
2021/03/05 09:42:48;;;;;;;6.33;1.97;;;;;;;;;;5049821;28;20033;-82
2021/03/05 09:45:31;;;;;;;4.10;1.13;;;;;;;;;;5050292;28;20025;-82
2021/03/05 09:47:56;;;;;;;1.85;0.90;;;;;;;;;;5052701;28;20024;-82
2021/03/05 09:50:22;;;;;;;2.95;1.38;;;;;;;;;;5052881;28;20032;-82
2021/03/05 09:52:47;;;;;;;2.88;1.42;;;;;;;;;;5051340;28;20496;-82
2021/03/05 09:55:29;;;;;;;5.93;1.65;;;;;;;;;;5050892;28;20556;-82
2021/03/05 09:57:55;;;;;;;4.05;1.38;;;;;;;;;;5050956;28;20029;-82
2021/03/05 10:00:38;;;;;;;4.03;1.60;;;;;;;;;;5051439;28;20028;-82
2021/03/05 10:03:13;;;;;;;5.78;2.10;;;;;;;;;;5051178;28;20021;-82
2021/03/05 10:05:39;;;;;;;6.72;2.30;;;;;;;;;;5052396;28;20021;-82
2021/03/05 10:08:18;;;;;;;10.02;1.90;;;;;;;;;;5051418;28;20384;-81
2021/03/05 10:11:00;;;;;;;5.63;2.30;;;;;;;;;;5051129;28;20052;-81
2021/03/05 10:13:43;;;;;;;4.10;1.58;;;;;;;;;;5052478;28;20099;-82
2021/03/05 10:16:14;;;;;;;6.63;1.67;;;;;;;;;;5039426;28;20044;-82
2021/03/05 10:18:40;;;;;;;12.00;2.30;;;;;;;;;;5052334;28;20017;-82
2021/03/05 10:21:09;;;;;;;5.20;1.85;;;;;;;;;;5050751;28;20530;-82
2021/03/05 10:23:36;;;;;;;5.97;2.03;;;;;;;;;;5051090;28;20025;-82
2021/03/05 10:26:01;;;;;;;2.25;0.55;;;;;;;;;;5050944;28;20052;-82
2021/03/05 10:28:30;;;;;;;4.97;2.10;;;;;;;;;;5050921;28;20425;-82
2021/03/05 10:30:55;;;;;;;3.53;0.83;;;;;;;;;;5052143;28;20013;-82
2021/03/05 10:33:36;;;;;;;2.20;0.68;;;;;;;;;;5050890;28;20021;-82
2021/03/05 10:36:02;;;;;;;0.20;0.13;;;;;;;;;;5049727;28;20424;-82
2021/03/05 10:38:27;;;;;;;4.60;1.80;;;;;;;;;;5049812;28;20248;-81
2021/03/05 10:40:53;;;;;;;5.35;1.60;;;;;;;;;;5049976;28;20111;-82
2021/03/05 10:43:18;;;;;;;3.55;0.93;;;;;;;;;;5050144;28;20025;-81
2021/03/05 10:45:43;;;;;;;4.45;1.15;;;;;;;;;;5051823;28;20021;-82
2021/03/05 10:48:08;;;;;;;9.60;1.38;;;;;;;;;;5051424;28;20495;-81
2021/03/05 10:50:34;;;;;;;6.07;1.30;;;;;;;;;;5051420;28;20066;-82
2021/03/05 10:52:59;;;;;;;5.15;1.50;;;;;;;;;;5050650;28;20056;-81
2021/03/05 10:55:24;;;;;;;4.03;1.60;;;;;;;;;;5050361;28;20461;-81
2021/03/05 10:57:49;;;;;;;3.80;1.17;;;;;;;;;;5050346;28;20064;-82
2021/03/05 11:00:15;;;;;;;3.90;1.40;;;;;;;;;;5052116;28;20051;-81
2021/03/05 11:02:40;;;;;;;2.67;1.20;;;;;;;;;;5050510;28;20530;-81
2021/03/05 11:05:06;;;;;;;5.18;1.25;;;;;;;;;;5050509;28;20028;-81
2021/03/05 11:07:31;;;;;;;6.43;2.28;;;;;;;;;;5050075;28;20021;-81
2021/03/05 11:09:56;;;;;;;5.53;1.63;;;;;;;;;;5052096;28;20384;-81
2021/03/05 11:12:21;;;;;;;4.38;1.13;;;;;;;;;;5053828;28;20029;-81
2021/03/05 11:14:46;;;;;;;5.07;1.40;;;;;;;;;;5055298;28;20056;-81
2021/03/05 11:17:12;;;;;;;3.08;1.15;;;;;;;;;;5055264;28;20023;-81
2021/03/05 11:19:37;;;;;;;8.25;2.40;;;;;;;;;;5054092;28;20491;-81
2021/03/05 11:22:03;;;;;;;6.40;2.55;;;;;;;;;;5055011;28;20032;-81
2021/03/05 11:24:28;;;;;;;6.28;1.90;;;;;;;;;;5052235;28;20025;-82
2021/03/05 11:26:53;;;;;;;6.53;2.00;;;;;;;;;;5053421;28;20032;-81
2021/03/05 11:29:18;;;;;;;5.20;1.40;;;;;;;;;;5053879;28;20028;-81
2021/03/05 11:31:43;;;;;;;10.00;2.07;;;;;;;;;;5054021;28;20024;-81
2021/03/05 11:34:09;;;;;;;4.00;1.20;;;;;;;;;;5054916;28;20025;-81
2021/03/05 11:36:34;;;;;;;2.58;0.90;;;;;;;;;;5053330;28;20013;-81
2021/03/05 11:38:59;;;;;;;3.58;1.30;;;;;;;;;;5053883;28;20021;-81
2021/03/05 11:41:24;;;;;;;2.53;0.95;;;;;;;;;;5055084;28;20416;-82
2021/03/05 11:43:50;;;;;;;4.05;1.60;;;;;;;;;;5053458;28;20031;-82
2021/03/05 11:46:16;;;;;;;3.92;1.75;;;;;;;;;;5053445;28;20021;-82
2021/03/05 11:48:41;;;;;;;7.30;1.50;;;;;;;;;;5053659;28;20028;-82
2021/03/05 11:51:07;;;;;;;7.65;3.22;;;;;;;;;;5052347;28;20025;-81
2021/03/05 11:53:33;;;;;;;3.58;1.52;;;;;;;;;;5053533;28;20025;-81
2021/03/05 11:55:58;;;;;;;6.30;1.48;;;;;;;;;;5054955;28;20399;-81
2021/03/05 11:58:23;;;;;;;4.65;1.00;;;;;;;;;;5053021;28;20033;-81
2021/03/05 12:00:49;;;;;;;2.92;0.90;;;;;;;;;;5052987;28;20123;-82
2021/03/05 12:03:14;;;;;;;0.88;0.60;;;;;;;;;;5052347;28;20086;-81
2021/03/05 12:05:39;;;;;;;8.23;0.80;;;;;;;;;;5054148;28;20025;-81
2021/03/05 12:08:05;;;;;;;3.55;1.13;;;;;;;;;;5052930;28;20070;-82
2021/03/05 12:10:30;;;;;;;4.15;0.95;;;;;;;;;;5054442;28;20529;-81
2021/03/05 12:12:55;;;;;;;3.83;1.38;;;;;;;;;;5052938;28;20021;-81
2021/03/05 12:15:20;;;;;;;1.83;0.90;;;;;;;;;;5052655;28;20017;-81
2021/03/05 12:17:45;;;;;;;4.40;1.15;;;;;;;;;;5048608;28;20377;-81
2021/03/05 12:20:11;;;;;;;2.03;1.00;;;;;;;;;;5051298;28;20491;-81
2021/03/05 12:22:36;;;;;;;2.58;0.70;;;;;;;;;;5052152;28;20032;-81
2021/03/05 12:25:02;;;;;;;2.00;0.82;;;;;;;;;;5053001;28;20032;-82
2021/03/05 12:27:27;;;;;;;3.33;1.10;;;;;;;;;;5052553;28;20033;-82
2021/03/05 12:29:52;;;;;;;3.30;0.95;;;;;;;;;;5053468;28;20461;-81
2021/03/05 12:32:18;;;;;;;2.78;1.05;;;;;;;;;;5081344;28;20075;-81
2021/03/05 12:34:43;;;;;;;10.32;2.03;;;;;;;;;;5051606;28;20021;-82
2021/03/05 12:37:08;;;;;;;0.77;0.40;;;;;;;;;;5051538;28;20473;-81
2021/03/05 12:39:34;;;;;;;2.22;1.17;;;;;;;;;;5053465;28;20078;-81
2021/03/05 12:41:59;;;;;;;1.88;0.60;;;;;;;;;;5053253;28;20043;-81
2021/03/05 12:44:24;;;;;;;4.75;1.98;;;;;;;;;;5052245;28;20041;-82
2021/03/05 12:46:49;;;;;;;2.80;0.90;;;;;;;;;;5053532;28;20457;-81
2021/03/05 12:49:15;;;;;;;2.20;0.70;;;;;;;;;;5052084;28;20028;-81
2021/03/05 12:51:40;;;;;;;3.63;1.10;;;;;;;;;;5051745;28;20040;-80
2021/03/05 12:54:05;;;;;;;2.17;1.05;;;;;;;;;;5051782;28;20020;-81
2021/03/05 12:56:31;;;;;;;1.80;0.80;;;;;;;;;;5052148;28;20025;-81
2021/03/05 12:58:56;;;;;;;2.63;0.80;;;;;;;;;;5052142;28;20071;-81
2021/03/05 13:01:22;;;;;;;1.50;0.80;;;;;;;;;;5053370;28;20349;-81
2021/03/05 13:03:47;;;;;;;2.88;0.80;;;;;;;;;;5053388;28;20021;-81
2021/03/05 13:06:12;;;;;;;1.45;0.85;;;;;;;;;;5052274;28;20029;-81
2021/03/05 13:08:37;;;;;;;2.25;0.60;;;;;;;;;;5051150;28;20449;-81
2021/03/05 13:11:03;;;;;;;2.90;1.00;;;;;;;;;;5052189;28;20013;-81
2021/03/05 13:13:28;;;;;;;4.15;0.88;;;;;;;;;;5051754;28;20488;-81
2021/03/05 13:15:53;;;;;;;4.03;0.93;;;;;;;;;;5053162;28;20048;-81
2021/03/05 13:18:18;;;;;;;2.38;0.57;;;;;;;;;;5051874;28;20028;-82
2021/03/05 13:20:44;;;;;;;3.72;0.63;;;;;;;;;;5052887;28;20472;-81
2021/03/05 13:23:09;;;;;;;4.25;0.90;;;;;;;;;;5052621;28;20021;-81
2021/03/05 13:25:34;;;;;;;1.95;0.75;;;;;;;;;;5051488;28;20546;-81
2021/03/05 13:28:01;;;;;;;2.88;0.70;;;;;;;;;;5051510;28;20070;-81
2021/03/05 13:30:29;;;;;;;1.88;0.60;;;;;;;;;;5052525;28;20075;-81
2021/03/05 13:32:56;;;;;;;2.80;0.70;;;;;;;;;;5050914;28;20372;-82
2021/03/05 13:35:21;;;;;;;1.65;0.80;;;;;;;;;;5051443;28;20013;-82
2021/03/05 13:37:46;;;;;;;2.70;0.88;;;;;;;;;;5052735;28;20711;-81
2021/03/05 13:40:12;;;;;;;2.40;0.75;;;;;;;;;;5050820;28;20096;-81
2021/03/05 13:42:37;;;;;;;5.25;0.70;;;;;;;;;;5052345;28;20020;-81
2021/03/05 13:45:03;;;;;;;4.53;0.93;;;;;;;;;;5052367;28;20028;-81
2021/03/05 13:47:28;;;;;;;3.65;0.90;;;;;;;;;;5051397;28;20473;-81
2021/03/05 13:49:53;;;;;;;3.13;1.00;;;;;;;;;;5052529;28;20017;-81
2021/03/05 13:52:19;;;;;;;1.77;0.73;;;;;;;;;;5052622;28;20045;-81
2021/03/05 13:54:44;;;;;;;3.63;0.85;;;;;;;;;;5050743;28;20435;-81
2021/03/05 13:57:09;;;;;;;2.47;0.70;;;;;;;;;;5051502;28;20017;-81
2021/03/05 13:59:34;;;;;;;2.85;0.88;;;;;;;;;;5051309;28;20031;-81
2021/03/05 14:01:59;;;;;;;2.78;0.77;;;;;;;;;;5051105;28;20024;-80
2021/03/05 14:04:25;;;;;;;2.00;0.80;;;;;;;;;;5050252;28;20017;-81
2021/03/05 14:06:50;;;;;;;2.22;0.88;;;;;;;;;;5049599;28;20356;-81
2021/03/05 14:09:15;;;;;;;2.42;0.80;;;;;;;;;;5051234;28;20013;-81
2021/03/05 14:11:40;;;;;;;1.45;0.82;;;;;;;;;;5049869;28;20033;-81
2021/03/05 14:14:05;;;;;;;2.08;0.70;;;;;;;;;;5049904;28;20013;-81
2021/03/05 14:16:32;;;;;;;2.38;0.52;;;;;;;;;;5050191;28;20104;-81
2021/03/05 14:18:57;;;;;;;2.88;0.90;;;;;;;;;;5049963;28;20387;-81
2021/03/05 14:21:22;;;;;;;3.00;0.90;;;;;;;;;;5049615;28;20107;-81
2021/03/05 14:23:47;;;;;;;1.73;0.50;;;;;;;;;;5049555;28;20024;-81
2021/03/05 14:26:13;;;;;;;1.58;0.57;;;;;;;;;;5050979;28;20025;-81
2021/03/05 14:28:38;;;;;;;1.45;0.60;;;;;;;;;;5049710;28;20036;-81
2021/03/05 14:31:03;;;;;;;4.72;0.70;;;;;;;;;;5049272;28;20055;-81
2021/03/05 14:33:28;;;;;;;2.95;0.82;;;;;;;;;;5050981;28;20433;-80